sensor_id;sensor_type;location;lat;lon;timestamp;P1;durP1;ratioP1;P2;durP2;ratioP2
12383;SDS011;6256;63.808;20.336;2022-11-20T00:02:16;0.80;;;0.60;;
12383;SDS011;6256;63.808;20.336;2022-11-20T00:04:41;1.07;;;0.73;;
12383;SDS011;6256;63.808;20.336;2022-11-20T00:07:07;0.80;;;0.80;;
12383;SDS011;6256;63.808;20.336;2022-11-20T00:09:32;0.80;;;0.80;;
12383;SDS011;6256;63.808;20.336;2022-11-20T00:11:58;1.17;;;0.83;;
12383;SDS011;6256;63.808;20.336;2022-11-20T00:14:24;0.90;;;0.90;;
12383;SDS011;6256;63.808;20.336;2022-11-20T00:16:50;0.50;;;0.50;;
12383;SDS011;6256;63.808;20.336;2022-11-20T00:19:15;0.70;;;0.50;;
12383;SDS011;6256;63.808;20.336;2022-11-20T00:21:41;0.70;;;0.70;;
12383;SDS011;6256;63.808;20.336;2022-11-20T00:24:09;1.13;;;0.90;;
12383;SDS011;6256;63.808;20.336;2022-11-20T00:26:35;0.87;;;0.60;;
12383;SDS011;6256;63.808;20.336;2022-11-20T00:29:02;1.10;;;1.00;;
12383;SDS011;6256;63.808;20.336;2022-11-20T00:31:28;0.70;;;0.60;;
12383;SDS011;6256;63.808;20.336;2022-11-20T00:33:55;1.37;;;0.90;;
12383;SDS011;6256;63.808;20.336;2022-11-20T00:36:22;1.43;;;0.70;;
12383;SDS011;6256;63.808;20.336;2022-11-20T00:38:53;0.50;;;0.50;;
12383;SDS011;6256;63.808;20.336;2022-11-20T00:41:20;1.07;;;0.77;;
12383;SDS011;6256;63.808;20.336;2022-11-20T00:43:47;0.67;;;0.67;;
12383;SDS011;6256;63.808;20.336;2022-11-20T00:46:13;0.60;;;0.60;;
12383;SDS011;6256;63.808;20.336;2022-11-20T00:48:43;0.83;;;0.83;;
12383;SDS011;6256;63.808;20.336;2022-11-20T00:51:11;1.93;;;1.10;;
12383;SDS011;6256;63.808;20.336;2022-11-20T00:53:38;0.93;;;0.60;;
12383;SDS011;6256;63.808;20.336;2022-11-20T00:56:04;0.73;;;0.73;;
12383;SDS011;6256;63.808;20.336;2022-11-20T00:58:32;0.60;;;0.60;;
12383;SDS011;6256;63.808;20.336;2022-11-20T01:01:06;1.60;;;0.43;;
12383;SDS011;6256;63.808;20.336;2022-11-20T01:03:34;0.47;;;0.47;;
12383;SDS011;6256;63.808;20.336;2022-11-20T01:06:01;0.77;;;0.60;;
12383;SDS011;6256;63.808;20.336;2022-11-20T01:08:30;0.53;;;0.47;;
12383;SDS011;6256;63.808;20.336;2022-11-20T01:11:00;0.40;;;0.40;;
12383;SDS011;6256;63.808;20.336;2022-11-20T01:13:27;0.70;;;0.60;;
12383;SDS011;6256;63.808;20.336;2022-11-20T01:18:36;0.50;;;0.50;;
12383;SDS011;6256;63.808;20.336;2022-11-20T01:21:07;1.00;;;0.67;;
12383;SDS011;6256;63.808;20.336;2022-11-20T01:23:35;1.60;;;0.67;;
12383;SDS011;6256;63.808;20.336;2022-11-20T01:26:03;1.03;;;0.67;;
12383;SDS011;6256;63.808;20.336;2022-11-20T01:28:31;0.57;;;0.57;;
12383;SDS011;6256;63.808;20.336;2022-11-20T01:30:57;0.87;;;0.40;;
12383;SDS011;6256;63.808;20.336;2022-11-20T01:33:23;0.43;;;0.43;;
12383;SDS011;6256;63.808;20.336;2022-11-20T01:35:49;0.50;;;0.50;;
12383;SDS011;6256;63.808;20.336;2022-11-20T01:38:15;0.40;;;0.40;;
12383;SDS011;6256;63.808;20.336;2022-11-20T01:40:41;0.33;;;0.33;;
12383;SDS011;6256;63.808;20.336;2022-11-20T01:43:16;0.87;;;0.77;;
12383;SDS011;6256;63.808;20.336;2022-11-20T01:48:18;0.47;;;0.40;;
12383;SDS011;6256;63.808;20.336;2022-11-20T01:50:45;0.33;;;0.33;;
12383;SDS011;6256;63.808;20.336;2022-11-20T01:53:12;0.27;;;0.27;;
12383;SDS011;6256;63.808;20.336;2022-11-20T01:55:43;0.33;;;0.33;;
12383;SDS011;6256;63.808;20.336;2022-11-20T01:58:14;1.07;;;0.57;;
12383;SDS011;6256;63.808;20.336;2022-11-20T02:00:41;0.37;;;0.37;;
12383;SDS011;6256;63.808;20.336;2022-11-20T02:03:09;0.40;;;0.40;;
12383;SDS011;6256;63.808;20.336;2022-11-20T02:05:39;0.87;;;0.50;;
12383;SDS011;6256;63.808;20.336;2022-11-20T02:08:19;0.30;;;0.30;;
12383;SDS011;6256;63.808;20.336;2022-11-20T02:10:47;0.40;;;0.40;;
12383;SDS011;6256;63.808;20.336;2022-11-20T02:13:13;0.23;;;0.23;;
12383;SDS011;6256;63.808;20.336;2022-11-20T02:15:57;0.27;;;0.27;;
12383;SDS011;6256;63.808;20.336;2022-11-20T02:18:23;0.50;;;0.33;;
12383;SDS011;6256;63.808;20.336;2022-11-20T02:26:23;0.30;;;0.30;;
12383;SDS011;6256;63.808;20.336;2022-11-20T02:28:49;0.83;;;0.50;;
12383;SDS011;6256;63.808;20.336;2022-11-20T02:31:16;0.40;;;0.40;;
12383;SDS011;6256;63.808;20.336;2022-11-20T02:33:41;0.20;;;0.20;;
12383;SDS011;6256;63.808;20.336;2022-11-20T02:36:08;1.03;;;0.43;;
12383;SDS011;6256;63.808;20.336;2022-11-20T02:38:39;0.83;;;0.80;;
12383;SDS011;6256;63.808;20.336;2022-11-20T02:41:05;0.30;;;0.30;;
12383;SDS011;6256;63.808;20.336;2022-11-20T02:43:30;0.40;;;0.40;;
12383;SDS011;6256;63.808;20.336;2022-11-20T02:45:56;0.40;;;0.40;;
12383;SDS011;6256;63.808;20.336;2022-11-20T02:48:22;0.20;;;0.20;;
12383;SDS011;6256;63.808;20.336;2022-11-20T02:50:47;0.40;;;0.40;;
12383;SDS011;6256;63.808;20.336;2022-11-20T02:53:13;0.53;;;0.53;;
12383;SDS011;6256;63.808;20.336;2022-11-20T02:55:39;0.30;;;0.30;;
12383;SDS011;6256;63.808;20.336;2022-11-20T02:58:05;0.43;;;0.43;;
12383;SDS011;6256;63.808;20.336;2022-11-20T03:00:30;0.40;;;0.40;;
12383;SDS011;6256;63.808;20.336;2022-11-20T03:02:57;0.20;;;0.20;;
12383;SDS011;6256;63.808;20.336;2022-11-20T03:05:22;0.30;;;0.30;;
12383;SDS011;6256;63.808;20.336;2022-11-20T03:07:48;0.30;;;0.30;;
12383;SDS011;6256;63.808;20.336;2022-11-20T03:10:14;0.30;;;0.30;;
12383;SDS011;6256;63.808;20.336;2022-11-20T03:12:40;0.30;;;0.30;;
12383;SDS011;6256;63.808;20.336;2022-11-20T03:15:05;0.40;;;0.40;;
12383;SDS011;6256;63.808;20.336;2022-11-20T03:17:31;0.43;;;0.43;;
12383;SDS011;6256;63.808;20.336;2022-11-20T03:19:57;0.40;;;0.40;;
12383;SDS011;6256;63.808;20.336;2022-11-20T03:22:23;0.30;;;0.30;;
12383;SDS011;6256;63.808;20.336;2022-11-20T03:24:49;0.40;;;0.40;;
12383;SDS011;6256;63.808;20.336;2022-11-20T03:27:14;0.33;;;0.33;;
12383;SDS011;6256;63.808;20.336;2022-11-20T03:29:40;0.30;;;0.30;;
12383;SDS011;6256;63.808;20.336;2022-11-20T03:32:06;0.40;;;0.40;;
12383;SDS011;6256;63.808;20.336;2022-11-20T03:34:32;0.40;;;0.40;;
12383;SDS011;6256;63.808;20.336;2022-11-20T03:36:57;0.30;;;0.30;;
12383;SDS011;6256;63.808;20.336;2022-11-20T03:39:23;0.80;;;0.50;;
12383;SDS011;6256;63.808;20.336;2022-11-20T03:41:49;0.57;;;0.57;;
12383;SDS011;6256;63.808;20.336;2022-11-20T03:44:15;0.40;;;0.40;;
12383;SDS011;6256;63.808;20.336;2022-11-20T03:46:40;0.83;;;0.40;;
12383;SDS011;6256;63.808;20.336;2022-11-20T03:49:06;0.40;;;0.40;;
12383;SDS011;6256;63.808;20.336;2022-11-20T03:51:32;0.40;;;0.40;;
12383;SDS011;6256;63.808;20.336;2022-11-20T03:54:02;0.63;;;0.63;;
12383;SDS011;6256;63.808;20.336;2022-11-20T03:56:33;0.43;;;0.43;;
12383;SDS011;6256;63.808;20.336;2022-11-20T03:59:01;0.80;;;0.80;;
12383;SDS011;6256;63.808;20.336;2022-11-20T04:01:29;0.40;;;0.40;;
12383;SDS011;6256;63.808;20.336;2022-11-20T04:03:59;0.60;;;0.60;;
12383;SDS011;6256;63.808;20.336;2022-11-20T04:06:27;0.53;;;0.53;;
12383;SDS011;6256;63.808;20.336;2022-11-20T04:08:54;0.57;;;0.57;;
12383;SDS011;6256;63.808;20.336;2022-11-20T04:11:22;0.60;;;0.50;;
12383;SDS011;6256;63.808;20.336;2022-11-20T04:13:58;0.53;;;0.53;;
12383;SDS011;6256;63.808;20.336;2022-11-20T04:16:30;0.50;;;0.50;;
12383;SDS011;6256;63.808;20.336;2022-11-20T04:19:00;0.40;;;0.40;;
12383;SDS011;6256;63.808;20.336;2022-11-20T04:21:28;0.60;;;0.60;;
12383;SDS011;6256;63.808;20.336;2022-11-20T04:23:54;0.60;;;0.60;;
12383;SDS011;6256;63.808;20.336;2022-11-20T04:26:21;1.27;;;0.60;;
12383;SDS011;6256;63.808;20.336;2022-11-20T04:28:48;0.47;;;0.47;;
12383;SDS011;6256;63.808;20.336;2022-11-20T04:31:19;0.63;;;0.60;;
12383;SDS011;6256;63.808;20.336;2022-11-20T04:33:49;0.57;;;0.57;;
12383;SDS011;6256;63.808;20.336;2022-11-20T04:36:16;0.67;;;0.67;;
12383;SDS011;6256;63.808;20.336;2022-11-20T04:38:50;0.50;;;0.50;;
12383;SDS011;6256;63.808;20.336;2022-11-20T04:41:28;0.60;;;0.60;;
12383;SDS011;6256;63.808;20.336;2022-11-20T04:44:00;0.50;;;0.50;;
12383;SDS011;6256;63.808;20.336;2022-11-20T04:46:28;0.50;;;0.50;;
12383;SDS011;6256;63.808;20.336;2022-11-20T04:49:01;0.77;;;0.63;;
12383;SDS011;6256;63.808;20.336;2022-11-20T04:51:28;0.50;;;0.50;;
12383;SDS011;6256;63.808;20.336;2022-11-20T04:53:53;0.67;;;0.60;;
12383;SDS011;6256;63.808;20.336;2022-11-20T04:56:19;0.60;;;0.50;;
12383;SDS011;6256;63.808;20.336;2022-11-20T04:58:45;0.50;;;0.50;;
12383;SDS011;6256;63.808;20.336;2022-11-20T05:01:15;0.50;;;0.50;;
12383;SDS011;6256;63.808;20.336;2022-11-20T05:03:45;0.50;;;0.50;;
12383;SDS011;6256;63.808;20.336;2022-11-20T05:06:12;0.53;;;0.50;;
12383;SDS011;6256;63.808;20.336;2022-11-20T05:08:39;0.53;;;0.50;;
12383;SDS011;6256;63.808;20.336;2022-11-20T05:11:09;0.40;;;0.40;;
12383;SDS011;6256;63.808;20.336;2022-11-20T05:13:36;0.50;;;0.50;;
12383;SDS011;6256;63.808;20.336;2022-11-20T05:16:03;0.43;;;0.43;;
12383;SDS011;6256;63.808;20.336;2022-11-20T05:18:34;1.17;;;0.43;;
12383;SDS011;6256;63.808;20.336;2022-11-20T05:21:00;0.50;;;0.50;;
12383;SDS011;6256;63.808;20.336;2022-11-20T05:23:26;0.57;;;0.57;;
12383;SDS011;6256;63.808;20.336;2022-11-20T05:25:54;0.50;;;0.50;;
12383;SDS011;6256;63.808;20.336;2022-11-20T05:28:21;0.80;;;0.63;;
12383;SDS011;6256;63.808;20.336;2022-11-20T05:30:48;0.57;;;0.47;;
12383;SDS011;6256;63.808;20.336;2022-11-20T05:33:13;0.80;;;0.80;;
12383;SDS011;6256;63.808;20.336;2022-11-20T05:35:39;0.40;;;0.40;;
12383;SDS011;6256;63.808;20.336;2022-11-20T05:38:05;0.37;;;0.37;;
12383;SDS011;6256;63.808;20.336;2022-11-20T05:40:31;0.57;;;0.57;;
12383;SDS011;6256;63.808;20.336;2022-11-20T05:42:57;0.60;;;0.60;;
12383;SDS011;6256;63.808;20.336;2022-11-20T05:45:22;0.33;;;0.33;;
12383;SDS011;6256;63.808;20.336;2022-11-20T05:47:48;0.30;;;0.30;;
12383;SDS011;6256;63.808;20.336;2022-11-20T05:50:14;0.67;;;0.67;;
12383;SDS011;6256;63.808;20.336;2022-11-20T05:52:40;0.53;;;0.50;;
12383;SDS011;6256;63.808;20.336;2022-11-20T05:55:06;0.33;;;0.33;;
12383;SDS011;6256;63.808;20.336;2022-11-20T05:57:32;0.40;;;0.40;;
12383;SDS011;6256;63.808;20.336;2022-11-20T05:59:58;0.50;;;0.50;;
12383;SDS011;6256;63.808;20.336;2022-11-20T06:02:23;0.50;;;0.50;;
12383;SDS011;6256;63.808;20.336;2022-11-20T06:04:49;0.60;;;0.60;;
12383;SDS011;6256;63.808;20.336;2022-11-20T06:07:15;0.90;;;0.90;;
12383;SDS011;6256;63.808;20.336;2022-11-20T06:09:41;0.77;;;0.47;;
12383;SDS011;6256;63.808;20.336;2022-11-20T06:12:06;1.07;;;0.83;;
12383;SDS011;6256;63.808;20.336;2022-11-20T06:14:32;0.53;;;0.53;;
12383;SDS011;6256;63.808;20.336;2022-11-20T06:16:58;0.30;;;0.30;;
12383;SDS011;6256;63.808;20.336;2022-11-20T06:19:24;0.93;;;0.83;;
12383;SDS011;6256;63.808;20.336;2022-11-20T06:21:50;0.67;;;0.60;;
12383;SDS011;6256;63.808;20.336;2022-11-20T06:24:16;0.60;;;0.60;;
12383;SDS011;6256;63.808;20.336;2022-11-20T06:26:42;0.80;;;0.60;;
12383;SDS011;6256;63.808;20.336;2022-11-20T06:29:08;1.00;;;1.00;;
12383;SDS011;6256;63.808;20.336;2022-11-20T06:31:34;0.70;;;0.70;;
12383;SDS011;6256;63.808;20.336;2022-11-20T06:34:03;0.90;;;0.90;;
12383;SDS011;6256;63.808;20.336;2022-11-20T06:36:30;1.10;;;1.07;;
12383;SDS011;6256;63.808;20.336;2022-11-20T06:38:56;0.67;;;0.50;;
12383;SDS011;6256;63.808;20.336;2022-11-20T06:41:22;1.30;;;1.20;;
12383;SDS011;6256;63.808;20.336;2022-11-20T06:43:48;0.83;;;0.80;;
12383;SDS011;6256;63.808;20.336;2022-11-20T06:46:14;2.20;;;0.73;;
12383;SDS011;6256;63.808;20.336;2022-11-20T06:48:45;1.03;;;1.03;;
12383;SDS011;6256;63.808;20.336;2022-11-20T06:51:12;1.20;;;1.10;;
12383;SDS011;6256;63.808;20.336;2022-11-20T06:53:38;0.90;;;0.90;;
12383;SDS011;6256;63.808;20.336;2022-11-20T06:56:04;1.40;;;1.23;;
12383;SDS011;6256;63.808;20.336;2022-11-20T06:58:31;1.20;;;1.10;;
12383;SDS011;6256;63.808;20.336;2022-11-20T07:01:01;1.00;;;0.87;;
12383;SDS011;6256;63.808;20.336;2022-11-20T07:03:37;1.03;;;0.90;;
12383;SDS011;6256;63.808;20.336;2022-11-20T07:06:03;1.57;;;0.90;;
12383;SDS011;6256;63.808;20.336;2022-11-20T07:08:30;1.80;;;1.13;;
12383;SDS011;6256;63.808;20.336;2022-11-20T07:11:00;2.23;;;1.20;;
12383;SDS011;6256;63.808;20.336;2022-11-20T07:13:27;1.60;;;1.20;;
12383;SDS011;6256;63.808;20.336;2022-11-20T07:15:53;1.27;;;1.17;;
12383;SDS011;6256;63.808;20.336;2022-11-20T07:18:20;1.33;;;1.23;;
12383;SDS011;6256;63.808;20.336;2022-11-20T07:20:46;0.93;;;0.93;;
12383;SDS011;6256;63.808;20.336;2022-11-20T07:23:12;1.57;;;1.23;;
12383;SDS011;6256;63.808;20.336;2022-11-20T07:25:37;1.80;;;1.70;;
12383;SDS011;6256;63.808;20.336;2022-11-20T07:28:03;2.57;;;1.47;;
12383;SDS011;6256;63.808;20.336;2022-11-20T07:30:29;1.57;;;1.30;;
12383;SDS011;6256;63.808;20.336;2022-11-20T07:32:55;1.53;;;1.40;;
12383;SDS011;6256;63.808;20.336;2022-11-20T07:35:22;1.10;;;1.00;;
12383;SDS011;6256;63.808;20.336;2022-11-20T07:37:48;1.03;;;0.80;;
12383;SDS011;6256;63.808;20.336;2022-11-20T07:40:14;1.27;;;1.17;;
12383;SDS011;6256;63.808;20.336;2022-11-20T07:42:51;0.90;;;0.90;;
12383;SDS011;6256;63.808;20.336;2022-11-20T07:45:18;1.23;;;1.13;;
12383;SDS011;6256;63.808;20.336;2022-11-20T07:47:44;0.97;;;0.97;;
12383;SDS011;6256;63.808;20.336;2022-11-20T07:50:10;1.13;;;1.03;;
12383;SDS011;6256;63.808;20.336;2022-11-20T07:52:36;1.60;;;1.37;;
12383;SDS011;6256;63.808;20.336;2022-11-20T07:55:02;0.87;;;0.70;;
12383;SDS011;6256;63.808;20.336;2022-11-20T07:57:28;0.80;;;0.80;;
12383;SDS011;6256;63.808;20.336;2022-11-20T07:59:54;1.43;;;0.90;;
12383;SDS011;6256;63.808;20.336;2022-11-20T08:02:20;1.87;;;0.90;;
12383;SDS011;6256;63.808;20.336;2022-11-20T08:04:45;0.70;;;0.70;;
12383;SDS011;6256;63.808;20.336;2022-11-20T08:07:11;0.80;;;0.80;;
12383;SDS011;6256;63.808;20.336;2022-11-20T08:09:37;1.40;;;0.97;;
12383;SDS011;6256;63.808;20.336;2022-11-20T08:12:03;1.23;;;1.13;;
12383;SDS011;6256;63.808;20.336;2022-11-20T08:14:47;0.60;;;0.60;;
12383;SDS011;6256;63.808;20.336;2022-11-20T08:17:13;0.70;;;0.67;;
12383;SDS011;6256;63.808;20.336;2022-11-20T08:19:38;0.80;;;0.80;;
12383;SDS011;6256;63.808;20.336;2022-11-20T08:22:04;1.60;;;0.70;;
12383;SDS011;6256;63.808;20.336;2022-11-20T08:24:30;0.77;;;0.77;;
12383;SDS011;6256;63.808;20.336;2022-11-20T08:26:59;0.90;;;0.90;;
12383;SDS011;6256;63.808;20.336;2022-11-20T08:29:28;1.00;;;0.90;;
12383;SDS011;6256;63.808;20.336;2022-11-20T08:31:53;0.80;;;0.80;;
12383;SDS011;6256;63.808;20.336;2022-11-20T08:34:20;0.97;;;0.93;;
12383;SDS011;6256;63.808;20.336;2022-11-20T08:36:45;0.90;;;0.73;;
12383;SDS011;6256;63.808;20.336;2022-11-20T08:39:11;0.90;;;0.77;;
12383;SDS011;6256;63.808;20.336;2022-11-20T08:41:38;1.13;;;0.70;;
12383;SDS011;6256;63.808;20.336;2022-11-20T08:44:04;1.00;;;0.80;;
12383;SDS011;6256;63.808;20.336;2022-11-20T08:46:32;0.67;;;0.67;;
12383;SDS011;6256;63.808;20.336;2022-11-20T08:49:02;1.40;;;0.93;;
12383;SDS011;6256;63.808;20.336;2022-11-20T08:51:28;0.70;;;0.70;;
12383;SDS011;6256;63.808;20.336;2022-11-20T08:53:54;0.70;;;0.70;;
12383;SDS011;6256;63.808;20.336;2022-11-20T08:56:20;0.80;;;0.80;;
12383;SDS011;6256;63.808;20.336;2022-11-20T08:58:46;0.70;;;0.70;;
12383;SDS011;6256;63.808;20.336;2022-11-20T09:01:11;0.60;;;0.60;;
12383;SDS011;6256;63.808;20.336;2022-11-20T09:03:37;0.60;;;0.60;;
12383;SDS011;6256;63.808;20.336;2022-11-20T09:06:06;0.80;;;0.80;;
12383;SDS011;6256;63.808;20.336;2022-11-20T09:08:33;0.97;;;0.93;;
12383;SDS011;6256;63.808;20.336;2022-11-20T09:11:00;1.03;;;0.90;;
12383;SDS011;6256;63.808;20.336;2022-11-20T09:13:26;1.03;;;0.93;;
12383;SDS011;6256;63.808;20.336;2022-11-20T09:15:57;1.10;;;1.10;;
12383;SDS011;6256;63.808;20.336;2022-11-20T09:18:31;0.60;;;0.60;;
12383;SDS011;6256;63.808;20.336;2022-11-20T09:21:01;1.10;;;0.50;;
12383;SDS011;6256;63.808;20.336;2022-11-20T09:23:30;0.77;;;0.50;;
12383;SDS011;6256;63.808;20.336;2022-11-20T09:25:58;1.13;;;0.80;;
12383;SDS011;6256;63.808;20.336;2022-11-20T09:28:29;0.63;;;0.63;;
12383;SDS011;6256;63.808;20.336;2022-11-20T09:30:55;1.40;;;0.70;;
12383;SDS011;6256;63.808;20.336;2022-11-20T09:33:21;1.10;;;0.97;;
12383;SDS011;6256;63.808;20.336;2022-11-20T09:35:46;0.80;;;0.80;;
12383;SDS011;6256;63.808;20.336;2022-11-20T09:38:12;1.53;;;0.97;;
12383;SDS011;6256;63.808;20.336;2022-11-20T09:40:40;0.60;;;0.60;;
12383;SDS011;6256;63.808;20.336;2022-11-20T09:43:15;0.80;;;0.80;;
12383;SDS011;6256;63.808;20.336;2022-11-20T09:48:32;0.70;;;0.70;;
12383;SDS011;6256;63.808;20.336;2022-11-20T09:53:46;0.43;;;0.43;;
12383;SDS011;6256;63.808;20.336;2022-11-20T09:56:23;0.93;;;0.90;;
12383;SDS011;6256;63.808;20.336;2022-11-20T09:58:52;0.40;;;0.40;;
12383;SDS011;6256;63.808;20.336;2022-11-20T10:01:21;0.60;;;0.60;;
12383;SDS011;6256;63.808;20.336;2022-11-20T10:03:58;1.30;;;0.70;;
12383;SDS011;6256;63.808;20.336;2022-11-20T10:08:58;0.80;;;0.80;;
12383;SDS011;6256;63.808;20.336;2022-11-20T10:11:35;1.37;;;0.50;;
12383;SDS011;6256;63.808;20.336;2022-11-20T10:19:45;0.80;;;0.80;;
12383;SDS011;6256;63.808;20.336;2022-11-20T10:25:20;0.57;;;0.57;;
12383;SDS011;6256;63.808;20.336;2022-11-20T10:27:51;0.60;;;0.60;;
12383;SDS011;6256;63.808;20.336;2022-11-20T10:30:24;0.60;;;0.60;;
12383;SDS011;6256;63.808;20.336;2022-11-20T10:35:48;0.53;;;0.50;;
12383;SDS011;6256;63.808;20.336;2022-11-20T10:38:37;0.43;;;0.40;;
12383;SDS011;6256;63.808;20.336;2022-11-20T10:41:07;0.30;;;0.30;;
12383;SDS011;6256;63.808;20.336;2022-11-20T10:43:54;0.43;;;0.40;;
12383;SDS011;6256;63.808;20.336;2022-11-20T10:46:29;0.30;;;0.30;;
12383;SDS011;6256;63.808;20.336;2022-11-20T10:49:14;0.47;;;0.47;;
12383;SDS011;6256;63.808;20.336;2022-11-20T11:00:03;0.67;;;0.67;;
12383;SDS011;6256;63.808;20.336;2022-11-20T11:02:40;0.63;;;0.60;;
12383;SDS011;6256;63.808;20.336;2022-11-20T11:08:37;0.60;;;0.60;;
12383;SDS011;6256;63.808;20.336;2022-11-20T11:11:18;0.57;;;0.57;;
12383;SDS011;6256;63.808;20.336;2022-11-20T11:13:49;0.57;;;0.57;;
12383;SDS011;6256;63.808;20.336;2022-11-20T11:16:19;0.80;;;0.80;;
12383;SDS011;6256;63.808;20.336;2022-11-20T11:18:49;0.63;;;0.63;;
12383;SDS011;6256;63.808;20.336;2022-11-20T11:21:22;0.70;;;0.70;;
12383;SDS011;6256;63.808;20.336;2022-11-20T11:23:57;0.63;;;0.63;;
12383;SDS011;6256;63.808;20.336;2022-11-20T11:26:24;0.90;;;0.80;;
12383;SDS011;6256;63.808;20.336;2022-11-20T11:31:31;0.80;;;0.70;;
12383;SDS011;6256;63.808;20.336;2022-11-20T11:34:11;0.43;;;0.43;;
12383;SDS011;6256;63.808;20.336;2022-11-20T11:36:41;0.60;;;0.60;;
12383;SDS011;6256;63.808;20.336;2022-11-20T11:39:11;0.57;;;0.57;;
12383;SDS011;6256;63.808;20.336;2022-11-20T11:41:40;0.63;;;0.60;;
12383;SDS011;6256;63.808;20.336;2022-11-20T11:47:05;0.70;;;0.70;;
12383;SDS011;6256;63.808;20.336;2022-11-20T11:49:46;0.80;;;0.80;;
12383;SDS011;6256;63.808;20.336;2022-11-20T12:00:20;0.60;;;0.60;;
12383;SDS011;6256;63.808;20.336;2022-11-20T12:10:50;0.70;;;0.70;;
12383;SDS011;6256;63.808;20.336;2022-11-20T12:13:34;0.63;;;0.50;;
12383;SDS011;6256;63.808;20.336;2022-11-20T12:16:03;0.57;;;0.50;;
12383;SDS011;6256;63.808;20.336;2022-11-20T12:18:29;0.63;;;0.53;;
12383;SDS011;6256;63.808;20.336;2022-11-20T12:21:15;0.50;;;0.50;;
12383;SDS011;6256;63.808;20.336;2022-11-20T12:46:08;0.40;;;0.40;;
12383;SDS011;6256;63.808;20.336;2022-11-20T12:51:45;0.53;;;0.50;;
12383;SDS011;6256;63.808;20.336;2022-11-20T13:05:17;0.30;;;0.30;;
12383;SDS011;6256;63.808;20.336;2022-11-20T13:07:53;2.50;;;0.60;;
12383;SDS011;6256;63.808;20.336;2022-11-20T13:13:11;0.40;;;0.40;;
12383;SDS011;6256;63.808;20.336;2022-11-20T13:16:09;1.03;;;0.77;;
12383;SDS011;6256;63.808;20.336;2022-11-20T13:18:42;0.60;;;0.60;;
12383;SDS011;6256;63.808;20.336;2022-11-20T13:21:20;0.80;;;0.57;;
12383;SDS011;6256;63.808;20.336;2022-11-20T13:23:48;0.40;;;0.40;;
12383;SDS011;6256;63.808;20.336;2022-11-20T13:26:15;1.33;;;0.77;;
12383;SDS011;6256;63.808;20.336;2022-11-20T13:28:41;0.50;;;0.50;;
12383;SDS011;6256;63.808;20.336;2022-11-20T13:31:23;0.27;;;0.20;;
12383;SDS011;6256;63.808;20.336;2022-11-20T13:34:01;0.60;;;0.60;;
12383;SDS011;6256;63.808;20.336;2022-11-20T13:36:29;0.63;;;0.43;;
12383;SDS011;6256;63.808;20.336;2022-11-20T13:38:56;0.53;;;0.53;;
12383;SDS011;6256;63.808;20.336;2022-11-20T13:41:32;0.50;;;0.43;;
12383;SDS011;6256;63.808;20.336;2022-11-20T13:46:52;0.40;;;0.40;;
12383;SDS011;6256;63.808;20.336;2022-11-20T13:49:24;0.40;;;0.40;;
12383;SDS011;6256;63.808;20.336;2022-11-20T13:51:51;0.60;;;0.60;;
12383;SDS011;6256;63.808;20.336;2022-11-20T14:00:10;0.27;;;0.27;;
12383;SDS011;6256;63.808;20.336;2022-11-20T14:02:38;0.40;;;0.40;;
12383;SDS011;6256;63.808;20.336;2022-11-20T14:05:04;0.40;;;0.40;;
12383;SDS011;6256;63.808;20.336;2022-11-20T14:07:33;0.60;;;0.60;;
12383;SDS011;6256;63.808;20.336;2022-11-20T14:10:02;1.27;;;0.43;;
12383;SDS011;6256;63.808;20.336;2022-11-20T14:12:29;0.60;;;0.60;;
12383;SDS011;6256;63.808;20.336;2022-11-20T14:14:57;0.50;;;0.50;;
12383;SDS011;6256;63.808;20.336;2022-11-20T14:17:31;0.57;;;0.57;;
12383;SDS011;6256;63.808;20.336;2022-11-20T14:20:00;0.70;;;0.70;;
12383;SDS011;6256;63.808;20.336;2022-11-20T14:22:31;0.67;;;0.67;;
12383;SDS011;6256;63.808;20.336;2022-11-20T14:25:01;0.23;;;0.23;;
12383;SDS011;6256;63.808;20.336;2022-11-20T14:27:37;0.50;;;0.40;;
12383;SDS011;6256;63.808;20.336;2022-11-20T14:30:05;0.40;;;0.40;;
12383;SDS011;6256;63.808;20.336;2022-11-20T14:32:42;0.30;;;0.30;;
12383;SDS011;6256;63.808;20.336;2022-11-20T14:35:13;0.30;;;0.30;;
12383;SDS011;6256;63.808;20.336;2022-11-20T14:37:44;1.03;;;0.40;;
12383;SDS011;6256;63.808;20.336;2022-11-20T14:42:56;0.57;;;0.57;;
12383;SDS011;6256;63.808;20.336;2022-11-20T14:45:23;0.30;;;0.30;;
12383;SDS011;6256;63.808;20.336;2022-11-20T14:47:54;0.30;;;0.30;;
12383;SDS011;6256;63.808;20.336;2022-11-20T14:50:27;0.47;;;0.47;;
12383;SDS011;6256;63.808;20.336;2022-11-20T14:52:55;1.23;;;0.60;;
12383;SDS011;6256;63.808;20.336;2022-11-20T14:55:35;0.27;;;0.27;;
12383;SDS011;6256;63.808;20.336;2022-11-20T14:58:06;0.40;;;0.40;;
12383;SDS011;6256;63.808;20.336;2022-11-20T15:03:20;1.07;;;0.50;;
12383;SDS011;6256;63.808;20.336;2022-11-20T15:05:49;0.30;;;0.30;;
12383;SDS011;6256;63.808;20.336;2022-11-20T15:08:15;0.30;;;0.30;;
12383;SDS011;6256;63.808;20.336;2022-11-20T15:10:45;0.30;;;0.30;;
12383;SDS011;6256;63.808;20.336;2022-11-20T15:15:51;0.40;;;0.40;;
12383;SDS011;6256;63.808;20.336;2022-11-20T15:18:21;0.63;;;0.40;;
12383;SDS011;6256;63.808;20.336;2022-11-20T15:20:51;0.30;;;0.30;;
12383;SDS011;6256;63.808;20.336;2022-11-20T15:23:18;0.30;;;0.30;;
12383;SDS011;6256;63.808;20.336;2022-11-20T15:25:44;0.20;;;0.20;;
12383;SDS011;6256;63.808;20.336;2022-11-20T15:28:21;0.40;;;0.40;;
12383;SDS011;6256;63.808;20.336;2022-11-20T15:30:48;0.40;;;0.40;;
12383;SDS011;6256;63.808;20.336;2022-11-20T15:33:15;0.30;;;0.30;;
12383;SDS011;6256;63.808;20.336;2022-11-20T15:35:42;0.40;;;0.40;;
12383;SDS011;6256;63.808;20.336;2022-11-20T15:38:08;0.40;;;0.40;;
12383;SDS011;6256;63.808;20.336;2022-11-20T15:40:34;3.40;;;0.50;;
12383;SDS011;6256;63.808;20.336;2022-11-20T15:43:00;0.30;;;0.20;;
12383;SDS011;6256;63.808;20.336;2022-11-20T15:45:38;0.20;;;0.20;;
12383;SDS011;6256;63.808;20.336;2022-11-20T15:48:12;0.30;;;0.30;;
12383;SDS011;6256;63.808;20.336;2022-11-20T15:50:43;0.40;;;0.40;;
12383;SDS011;6256;63.808;20.336;2022-11-20T15:53:21;0.60;;;0.47;;
12383;SDS011;6256;63.808;20.336;2022-11-20T15:55:47;0.57;;;0.57;;
12383;SDS011;6256;63.808;20.336;2022-11-20T15:58:13;0.33;;;0.33;;
12383;SDS011;6256;63.808;20.336;2022-11-20T16:00:39;0.40;;;0.40;;
12383;SDS011;6256;63.808;20.336;2022-11-20T16:03:04;0.50;;;0.50;;
12383;SDS011;6256;63.808;20.336;2022-11-20T16:05:30;0.37;;;0.37;;
12383;SDS011;6256;63.808;20.336;2022-11-20T16:07:56;0.73;;;0.50;;
12383;SDS011;6256;63.808;20.336;2022-11-20T16:10:22;0.67;;;0.60;;
12383;SDS011;6256;63.808;20.336;2022-11-20T16:12:48;0.60;;;0.60;;
12383;SDS011;6256;63.808;20.336;2022-11-20T16:15:33;0.37;;;0.37;;
12383;SDS011;6256;63.808;20.336;2022-11-20T16:18:12;0.60;;;0.60;;
12383;SDS011;6256;63.808;20.336;2022-11-20T16:20:40;0.50;;;0.50;;
12383;SDS011;6256;63.808;20.336;2022-11-20T16:23:06;0.63;;;0.60;;
12383;SDS011;6256;63.808;20.336;2022-11-20T16:25:32;0.40;;;0.40;;
12383;SDS011;6256;63.808;20.336;2022-11-20T16:27:58;0.83;;;0.80;;
12383;SDS011;6256;63.808;20.336;2022-11-20T16:30:23;0.30;;;0.30;;
12383;SDS011;6256;63.808;20.336;2022-11-20T16:32:49;0.40;;;0.40;;
12383;SDS011;6256;63.808;20.336;2022-11-20T16:35:15;0.40;;;0.40;;
12383;SDS011;6256;63.808;20.336;2022-11-20T16:37:41;0.30;;;0.30;;
12383;SDS011;6256;63.808;20.336;2022-11-20T16:40:08;0.67;;;0.60;;
12383;SDS011;6256;63.808;20.336;2022-11-20T16:42:35;0.93;;;0.93;;
12383;SDS011;6256;63.808;20.336;2022-11-20T16:45:02;0.50;;;0.50;;
12383;SDS011;6256;63.808;20.336;2022-11-20T16:47:32;0.60;;;0.60;;
12383;SDS011;6256;63.808;20.336;2022-11-20T16:49:59;0.53;;;0.53;;
12383;SDS011;6256;63.808;20.336;2022-11-20T16:52:25;0.67;;;0.67;;
12383;SDS011;6256;63.808;20.336;2022-11-20T16:54:51;0.50;;;0.50;;
12383;SDS011;6256;63.808;20.336;2022-11-20T16:57:17;0.60;;;0.60;;